Time;durP1;ratioP1;P1;durP2;ratioP2;P2;SDS_P1;SDS_P2;PMS_P1;PMS_P2;Temp;Humidity;BMP_temperature;BMP_pressure;BME280_temperature;BME280_humidity;BME280_pressure;Samples;Min_cycle;Max_cycle;Signal;HPM_P1;HPM_P2
2022/06/20 00:01:36;;;;;;;;;11.50;10.25;;;;;21.97;46.45;100959.37;146618;713;46019;-73
2022/06/20 00:04:28;;;;;;;;;10.75;9.75;;;;;21.86;47.08;100965.41;146617;581;46008;-75
2022/06/20 00:07:20;;;;;;;;;7.25;6.25;;;;;21.78;47.07;100961.84;146618;651;46008;-75
2022/06/20 00:10:15;;;;;;;;;8.25;8.25;;;;;21.77;47.07;100961.81;146617;571;46008;-75
2022/06/20 00:13:07;;;;;;;;;8.75;8.25;;;;;21.73;47.07;100957.38;146619;640;46010;-75
2022/06/20 00:16:00;;;;;;;;;9.75;8.75;;;;;21.75;46.80;100953.00;146621;603;46020;-76
2022/06/20 00:18:53;;;;;;;;;8.75;8.75;;;;;21.78;47.86;100953.94;146616;626;46010;-74
2022/06/20 00:21:46;;;;;;;;;11.00;10.50;;;;;21.79;47.15;100950.41;146616;694;46008;-77
2022/06/20 00:24:38;;;;;;;;;10.75;10.75;;;;;21.80;47.29;100946.88;146616;604;45019;-75
2022/06/20 00:27:30;;;;;;;;;10.25;9.50;;;;;21.80;47.42;100953.91;146618;605;46010;-77
2022/06/20 00:30:22;;;;;;;;;8.75;8.75;;;;;21.76;48.23;100941.56;146621;632;45018;-74
2022/06/20 00:33:15;;;;;;;;;9.75;9.75;;;;;21.70;48.49;100946.78;146617;575;46008;-74
2022/06/20 00:36:08;;;;;;;;;10.75;9.75;;;;;21.57;48.48;100941.41;146617;569;46010;-76
2022/06/20 00:39:01;;;;;;;;;9.75;9.75;;;;;21.48;48.59;100948.34;146619;582;46020;-74
2022/06/20 00:41:55;;;;;;;;;9.00;9.00;;;;;21.40;48.86;100943.88;146618;605;46010;-70
2022/06/20 00:44:52;;;;;;;;;8.50;8.50;;;;;21.38;48.32;100942.09;146617;633;46010;-71
2022/06/20 00:47:45;;;;;;;;;8.00;7.00;;;;;21.41;48.50;100942.13;146618;596;46010;-71
2022/06/20 00:50:38;;;;;;;;;8.00;7.25;;;;;21.43;48.95;100928.09;146620;571;45048;-71
2022/06/20 00:54:02;;;;;;;;;8.00;8.00;;;;;21.07;48.47;100875.81;146619;570;46008;-70
2022/06/20 00:57:05;;;;;;;;;10.25;9.50;;;;;21.28;48.43;100924.34;146621;578;45020;-71
2022/06/20 01:00:13;;;;;;;;;7.25;7.25;;;;;21.18;48.50;100926.91;146620;675;46018;-70
2022/06/20 01:03:16;;;;;;;;;7.50;7.00;;;;;21.16;48.25;100918.09;146615;633;46021;-71
2022/06/20 01:06:15;;;;;;;;;6.75;5.75;;;;;21.17;49.51;100916.34;146635;580;45018;-71
2022/06/20 01:09:13;;;;;;;;;8.25;8.00;;;;;21.14;49.45;100924.22;146639;569;45021;-70
2022/06/20 01:12:06;;;;;;;;;8.00;7.50;;;;;21.05;49.86;100922.34;146640;652;45010;-70
2022/06/20 01:14:59;;;;;;;;;11.00;9.00;;;;;20.99;49.44;100920.50;146639;577;45020;-71
2022/06/20 01:17:53;;;;;;;;;10.25;8.50;;;;;20.98;49.99;100920.50;146638;626;45010;-70
2022/06/20 01:20:48;;;;;;;;;8.00;7.00;;;;;20.96;49.97;100911.69;146642;603;45010;-70
2022/06/20 01:23:51;;;;;;;;;7.50;7.00;;;;;20.96;49.17;100909.94;146639;742;45010;-70
2022/06/20 01:27:21;;;;;;;;;8.00;7.25;;;;;20.92;48.45;100899.34;146637;582;46020;-70
2022/06/20 01:30:14;;;;;;;;;6.00;6.00;;;;;20.94;49.96;100909.06;146637;657;46008;-70
2022/06/20 01:33:06;;;;;;;;;9.00;8.00;;;;;20.94;49.74;100911.69;146642;619;44021;-70
2022/06/20 01:39:10;;;;;;;;;9.50;8.75;;;;;20.86;50.50;100909.81;146641;597;45011;-71
2022/06/20 01:42:20;;;;;;;;;7.50;7.50;;;;;20.80;50.73;100909.75;146639;649;45927;-70
2022/06/20 01:48:30;;;;;;;;;8.50;8.00;;;;;20.65;50.98;100913.06;146634;614;45019;-71
2022/06/20 01:51:30;;;;;;;;;10.00;10.00;;;;;20.59;50.45;100913.91;146637;563;45010;-68
2022/06/20 01:54:24;;;;;;;;;7.50;6.25;;;;;20.60;51.32;100910.38;146641;570;45018;-67
2022/06/20 01:57:18;;;;;;;;;6.00;6.00;;;;;20.61;51.10;100911.25;146638;635;45025;-68
2022/06/20 02:00:23;;;;;;;;;6.75;6.00;;;;;20.60;50.04;100898.97;146641;591;45026;-67
2022/06/20 02:03:18;;;;;;;;;8.25;7.00;;;;;20.59;50.89;100897.19;146640;638;45020;-68
2022/06/20 02:06:14;;;;;;;;;8.00;7.00;;;;;20.58;50.42;100898.94;146639;658;46010;-70
2022/06/20 02:09:11;;;;;;;;;7.50;7.25;;;;;20.62;50.29;100899.84;146639;617;45021;-70
2022/06/20 02:12:05;;;;;;;;;7.50;6.50;;;;;20.66;50.67;100888.50;146641;565;45018;-69
2022/06/20 02:15:04;;;;;;;;;7.75;7.75;;;;;20.67;50.43;100898.16;146643;597;45010;-70
2022/06/20 02:17:56;;;;;;;;;9.50;9.50;;;;;20.59;51.29;100892.81;146636;592;45018;-69
2022/06/20 02:20:52;;;;;;;;;8.00;7.50;;;;;19.42;50.56;100697.22;146638;590;45010;-69
2022/06/20 02:23:51;;;;;;;;;9.75;9.25;;;;;20.49;50.64;100890.87;146636;619;46010;-69
2022/06/20 02:26:45;;;;;;;;;6.00;6.00;;;;;20.46;50.64;100886.44;146644;681;45010;-69
2022/06/20 02:29:37;;;;;;;;;9.00;8.00;;;;;20.48;51.26;100891.75;146642;726;45008;-69
2022/06/20 02:32:33;;;;;;;;;7.75;7.25;;;;;20.50;51.17;100888.28;146638;631;45010;-68
2022/06/20 02:35:26;;;;;;;;;8.75;8.00;;;;;20.49;50.48;100889.13;146640;706;45010;-67
2022/06/20 02:38:18;;;;;;;;;6.25;6.25;;;;;20.51;50.47;100897.06;146636;663;45010;-68
2022/06/20 02:41:11;;;;;;;;;7.00;7.00;;;;;20.52;50.75;100893.56;146643;639;44018;-67
2022/06/20 02:44:10;;;;;;;;;6.75;6.75;;;;;20.49;50.22;100904.91;146639;638;45010;-66
2022/06/20 02:47:08;;;;;;;;;9.00;7.00;;;;;20.50;50.46;100903.19;146638;672;45010;-67
2022/06/20 02:50:04;;;;;;;;;6.25;6.25;;;;;20.48;50.59;100894.37;146640;563;46006;-69
2022/06/20 02:53:20;;;;;;;;;6.25;5.50;;;;;20.45;50.15;100894.34;146639;642;46008;-67
2022/06/20 02:56:19;;;;;;;;;8.75;7.75;;;;;20.47;50.26;100900.53;146641;604;45025;-69
2022/06/20 02:59:20;;;;;;;;;9.00;8.00;;;;;20.45;50.68;100903.12;146638;579;45019;-70
2022/06/20 03:02:19;;;;;;;;;8.00;8.00;;;;;20.38;51.25;100897.75;146643;591;45008;-69
2022/06/20 03:05:12;;;;;;;;;9.50;7.75;;;;;20.30;51.59;100902.91;146626;607;45018;-69
2022/06/20 03:08:05;;;;;;;;;7.50;7.00;;;;;20.25;51.35;100907.25;146618;578;46020;-70
2022/06/20 03:11:02;;;;;;;;;7.75;7.00;;;;;20.23;51.05;100909.81;146619;566;46010;-69
2022/06/20 03:13:55;;;;;;;;;8.75;8.00;;;;;20.23;51.35;100907.19;146619;668;45020;-69
2022/06/20 03:16:47;;;;;;;;;10.00;8.00;;;;;20.26;51.54;100907.25;146617;575;46018;-68
2022/06/20 03:19:43;;;;;;;;;6.00;6.00;;;;;20.29;50.89;100903.78;146617;622;46020;-67
2022/06/20 03:22:43;;;;;;;;;6.75;6.75;;;;;20.31;50.92;100899.38;146614;617;46927;-69
2022/06/20 03:25:38;;;;;;;;;10.00;8.00;;;;;20.31;51.79;100896.75;146615;637;46020;-68
2022/06/20 03:28:34;;;;;;;;;8.25;8.25;;;;;20.30;51.71;100895.88;146622;675;46008;-69
2022/06/20 03:31:26;;;;;;;;;8.25;7.00;;;;;20.28;51.73;100902.00;146620;577;46006;-69
2022/06/20 03:34:18;;;;;;;;;8.00;7.50;;;;;20.29;51.78;100901.13;146621;578;46008;-70
2022/06/20 03:37:10;;;;;;;;;9.00;7.00;;;;;20.28;52.26;100902.91;146618;680;46008;-70
2022/06/20 03:40:03;;;;;;;;;8.00;7.00;;;;;20.27;53.02;100900.22;146619;567;46008;-69
2022/06/20 03:42:56;;;;;;;;;8.25;6.50;;;;;20.21;52.81;100901.00;146618;583;46020;-69
2022/06/20 03:46:28;;;;;;;;;9.00;8.00;;;;;18.90;51.34;100682.38;146618;642;46009;-68
2022/06/20 03:49:37;;;;;;;;;8.50;7.25;;;;;20.18;52.18;100895.69;146615;584;46020;-69
2022/06/20 03:52:36;;;;;;;;;9.25;9.25;;;;;20.19;52.72;100905.38;146618;653;46010;-68
2022/06/20 03:55:46;;;;;;;;;8.50;8.00;;;;;20.21;52.02;100895.75;146619;669;46008;-69
2022/06/20 03:59:05;;;;;;;;;5.75;5.75;;;;;20.24;52.05;100893.16;146616;619;46018;-69
2022/06/20 04:02:18;;;;;;;;;9.50;9.00;;;;;20.26;52.50;100895.81;146616;610;46010;-69
2022/06/20 04:05:23;;;;;;;;;9.50;8.00;;;;;20.28;52.16;100892.34;146618;588;45927;-68
2022/06/20 04:08:23;;;;;;;;;8.50;6.75;;;;;20.38;52.44;100889.84;146619;629;46008;-70
2022/06/20 04:11:18;;;;;;;;;9.25;9.00;;;;;20.20;52.24;100833.44;146618;584;46018;-69
2022/06/20 04:14:27;;;;;;;;;10.00;8.00;;;;;20.82;50.70;100887.81;146618;676;46008;-73
2022/06/20 04:21:08;;;;;;;;;7.50;7.50;;;;;21.35;50.85;100898.09;146620;612;45021;-70
2022/06/20 04:24:27;;;;;;;;;7.25;6.75;;;;;21.57;49.43;100885.13;146619;599;45030;-70
2022/06/20 04:27:35;;;;;;;;;6.75;6.00;;;;;21.17;48.98;100773.94;146618;575;46010;-70
2022/06/20 04:31:12;;;;;;;;;6.50;6.50;;;;;21.52;48.05;100790.06;146618;583;46019;-71
2022/06/20 04:34:31;;;;;;;;;9.00;8.00;;;;;22.31;47.74;100891.84;146617;635;46020;-71
2022/06/20 04:37:34;;;;;;;;;7.00;7.00;;;;;22.40;47.42;100891.00;146618;571;45030;-69
2022/06/20 04:40:52;;;;;;;;;7.25;5.25;;;;;21.58;46.89;100725.91;146618;587;46010;-71
2022/06/20 04:44:08;;;;;;;;;8.00;6.75;;;;;21.47;46.14;100696.84;146621;675;45927;-71
2022/06/20 04:47:23;;;;;;;;;10.75;10.00;;;;;22.75;46.26;100896.47;146616;653;46008;-72
2022/06/20 04:50:23;;;;;;;;;8.75;7.75;;;;;22.97;46.68;100903.62;146616;564;46011;-78
2022/06/20 04:53:21;;;;;;;;;5.75;5.75;;;;;23.22;46.49;100901.94;146619;666;46008;-73
2022/06/20 04:56:28;;;;;;;;;9.75;8.50;;;;;23.45;46.22;100901.97;146619;666;45927;-72
2022/06/20 04:59:32;;;;;;;;;7.50;7.25;;;;;23.74;46.07;100899.38;146617;564;46021;-71
2022/06/20 05:02:26;;;;;;;;;10.75;9.75;;;;;24.03;45.58;100898.47;146614;577;46010;-69
2022/06/20 05:05:24;;;;;;;;;8.00;8.00;;;;;24.22;44.25;100894.03;146616;606;47008;-70
2022/06/20 05:08:19;;;;;;;;;7.00;7.00;;;;;24.32;44.69;100900.19;146618;670;46018;-71
2022/06/20 05:11:44;;;;;;;;;8.00;7.75;;;;;23.41;44.37;100707.03;146619;625;46008;-70
2022/06/20 05:14:47;;;;;;;;;8.50;8.00;;;;;24.70;44.48;100894.78;146620;597;46008;-71
2022/06/20 05:17:43;;;;;;;;;8.00;8.00;;;;;24.89;43.38;100895.59;146618;709;46020;-71
2022/06/20 05:20:40;;;;;;;;;9.50;9.50;;;;;25.03;43.47;100900.84;146617;566;46019;-71
2022/06/20 05:23:46;;;;;;;;;9.00;8.25;;;;;25.17;43.68;100898.13;146616;583;46020;-71
2022/06/20 05:26:43;;;;;;;;;12.25;11.00;;;;;25.29;42.42;100890.09;146618;582;46018;-69
2022/06/20 05:29:39;;;;;;;;;10.00;9.00;;;;;25.39;42.74;100899.78;146609;602;46021;-68
2022/06/20 05:32:49;;;;;;;;;9.00;9.00;;;;;25.44;42.74;100889.97;146608;571;46027;-70
2022/06/20 05:35:50;;;;;;;;;10.00;9.50;;;;;25.48;42.73;100894.41;146616;634;45020;-71
2022/06/20 05:39:08;;;;;;;;;8.25;8.25;;;;;25.51;42.93;100894.37;146615;625;46018;-71
2022/06/20 05:42:00;;;;;;;;;11.00;10.25;;;;;25.61;43.23;100891.63;146616;646;46008;-70
2022/06/20 05:44:52;;;;;;;;;9.25;9.00;;;;;25.23;43.06;100808.75;146613;606;46008;-72
2022/06/20 05:47:47;;;;;;;;;10.50;8.50;;;;;25.80;42.19;100894.13;146618;676;46008;-72
2022/06/20 05:51:03;;;;;;;;;9.50;9.00;;;;;24.92;42.83;100709.03;146618;632;46019;-72
2022/06/20 05:54:06;;;;;;;;;8.75;8.00;;;;;26.05;41.40;100893.06;146619;573;46020;-69
2022/06/20 05:57:12;;;;;;;;;8.25;7.00;;;;;26.13;42.12;100897.38;146619;644;46018;-70
2022/06/20 06:00:33;;;;;;;;;9.75;8.75;;;;;25.67;41.85;100799.53;146619;653;46008;-69
2022/06/20 06:03:46;;;;;;;;;8.75;8.75;;;;;26.28;41.44;100891.03;146620;565;46008;-72
2022/06/20 06:06:49;;;;;;;;;9.50;9.00;;;;;26.37;40.65;100890.94;146617;676;46008;-69
2022/06/20 06:10:05;;;;;;;;;8.50;8.00;;;;;26.46;41.75;100892.62;146616;585;46018;-71
2022/06/20 06:13:08;;;;;;;;;9.00;8.00;;;;;26.64;41.18;100897.75;146617;630;46020;-66
2022/06/20 06:20:00;;;;;;;;;8.75;8.75;;;;;25.03;40.83;100540.06;146618;633;46008;-70
2022/06/20 06:22:59;;;;;;;;;8.00;8.00;;;;;27.18;40.87;100881.09;146620;631;46008;-69
2022/06/20 06:25:51;;;;;;;;;7.50;6.50;;;;;26.34;40.18;100710.19;146617;706;46020;-69
2022/06/20 06:28:44;;;;;;;;;6.00;6.00;;;;;27.39;39.94;100878.09;146621;630;46008;-68
2022/06/20 06:31:42;;;;;;;;;7.00;5.00;;;;;27.48;39.66;100873.56;146619;673;46020;-69
2022/06/20 06:34:49;;;;;;;;;7.25;6.00;;;;;27.54;40.12;100865.44;146620;569;46927;-69
2022/06/20 06:37:51;;;;;;;;;7.75;6.75;;;;;27.67;40.74;100869.66;146617;625;46021;-69
2022/06/20 06:40:51;;;;;;;;;5.00;5.00;;;;;27.85;39.54;100869.38;146619;580;46010;-70
2022/06/20 06:43:48;;;;;;;;;6.25;6.25;;;;;28.01;39.23;100863.78;146620;565;46008;-68
2022/06/20 06:46:46;;;;;;;;;6.67;6.67;;;;;28.14;39.63;100861.75;146621;606;46010;-69
2022/06/20 06:49:50;;;;;;;;;5.00;5.00;;;;;28.36;39.10;100867.56;146619;569;46020;-69
2022/06/20 06:52:48;;;;;;;;;7.00;7.00;;;;;28.46;38.54;100869.16;146618;674;46018;-69
2022/06/20 06:55:45;;;;;;;;;8.75;6.00;;;;;28.50;38.00;100861.03;146620;596;46008;-71
2022/06/20 06:58:47;;;;;;;;;3.25;3.00;;;;;28.57;38.82;100867.16;146619;583;46010;-69
2022/06/20 07:01:45;;;;;;;;;6.00;6.00;;;;;28.68;39.08;100867.78;146618;727;45020;-69
2022/06/20 07:04:43;;;;;;;;;10.50;7.50;;;;;28.80;37.91;100860.44;146617;570;46018;-69
2022/06/20 07:07:57;;;;;;;;;7.50;5.25;;;;;28.87;38.52;100870.06;146617;652;46010;-69
2022/06/20 07:10:56;;;;;;;;;6.00;6.00;;;;;28.93;37.55;100860.13;146619;603;46008;-69
2022/06/20 07:14:21;;;;;;;;;8.50;7.50;;;;;28.53;38.12;100778.28;146618;615;46008;-68
2022/06/20 07:17:30;;;;;;;;;7.25;7.00;;;;;28.23;38.58;100710.47;146616;658;46927;-69
2022/06/20 07:20:26;;;;;;;;;10.50;7.50;;;;;29.15;37.36;100860.53;146618;654;45021;-69
2022/06/20 07:23:22;;;;;;;;;10.25;9.75;;;;;29.21;37.19;100855.06;146614;607;46008;-69
2022/06/20 07:26:17;;;;;;;;;10.75;8.75;;;;;29.30;37.51;100858.44;146620;663;46008;-69
2022/06/20 07:29:19;;;;;;;;;8.00;8.00;;;;;29.39;37.07;100864.44;146620;563;45927;-70
2022/06/20 07:32:33;;;;;;;;;7.00;7.00;;;;;29.41;37.54;100859.06;146616;625;46020;-70
2022/06/20 07:35:35;;;;;;;;;11.50;11.50;;;;;29.35;37.88;100852.06;146614;579;45927;-69
2022/06/20 07:38:37;;;;;;;;;11.75;9.00;;;;;29.33;38.58;100863.69;146615;683;46020;-70
2022/06/20 07:42:25;;;;;;;;;8.50;7.75;;;;;29.31;38.61;100860.19;146620;576;46019;-71
2022/06/20 07:45:30;;;;;;;;;9.75;8.00;;;;;29.19;39.01;100847.97;146613;600;46008;-70
2022/06/20 07:48:39;;;;;;;;;9.25;9.25;;;;;29.29;39.38;100854.88;146619;577;45018;-70
2022/06/20 07:51:42;;;;;;;;;10.75;10.00;;;;;29.44;40.08;100864.31;146617;694;46008;-71
2022/06/20 07:54:43;;;;;;;;;10.25;7.00;;;;;29.35;38.79;100854.75;146619;663;45018;-69
2022/06/20 07:57:41;;;;;;;;;10.50;10.50;;;;;29.21;38.51;100855.06;146612;613;46008;-69
2022/06/20 08:00:48;;;;;;;;;10.75;10.50;;;;;29.10;39.01;100850.91;146615;577;46018;-70
2022/06/20 08:03:51;;;;;;;;;11.25;9.25;;;;;29.05;39.39;100859.00;146614;566;46021;-69
2022/06/20 08:06:49;;;;;;;;;10.75;9.00;;;;;28.47;39.05;100758.87;146616;583;46008;-69
2022/06/20 08:09:52;;;;;;;;;11.00;9.00;;;;;29.13;39.26;100864.16;146617;593;46020;-70
2022/06/20 08:13:06;;;;;;;;;9.25;9.25;;;;;29.21;37.70;100854.19;146616;578;46008;-68
2022/06/20 08:16:35;;;;;;;;;8.00;8.00;;;;;28.25;39.90;100683.78;146621;573;45020;-70
2022/06/20 08:19:28;;;;;;;;;11.50;11.00;;;;;29.24;39.51;100849.63;146614;601;46008;-70
2022/06/20 08:22:50;;;;;;;;;11.25;10.50;;;;;29.33;39.14;100850.34;146613;623;46008;-70
2022/06/20 08:26:01;;;;;;;;;9.75;9.75;;;;;29.43;39.03;100847.41;146611;590;46008;-69
2022/06/20 08:29:03;;;;;;;;;10.75;10.25;;;;;29.44;38.38;100849.19;146617;581;46008;-69
2022/06/20 08:31:58;;;;;;;;;12.75;9.00;;;;;29.26;37.87;100846.94;146616;569;46008;-70
2022/06/20 08:35:03;;;;;;;;;8.75;8.00;;;;;29.07;38.49;100845.62;146617;573;46008;-69
2022/06/20 08:38:29;;;;;;;;;12.50;11.50;;;;;28.92;38.63;100845.03;146614;579;46008;-70
2022/06/20 08:41:50;;;;;;;;;10.00;9.00;;;;;28.92;39.59;100853.03;146613;564;46008;-70
2022/06/20 08:45:22;;;;;;;;;11.25;10.00;;;;;28.99;38.56;100851.97;146612;623;46010;-70
2022/06/20 08:48:59;;;;;;;;;10.00;9.00;;;;;29.08;37.58;100855.38;146616;574;46020;-71
2022/06/20 08:52:22;;;;;;;;;10.00;9.00;;;;;29.16;38.89;100850.72;146617;675;45018;-71
2022/06/20 08:55:58;;;;;;;;;8.75;8.75;;;;;29.23;38.83;100853.22;146619;570;46009;-70
2022/06/20 08:59:31;;;;;;;;;10.50;10.00;;;;;29.19;37.50;100845.31;146608;579;46018;-69
2022/06/20 09:03:10;;;;;;;;;10.50;9.00;;;;;29.07;37.96;100853.66;146618;658;46009;-70
2022/06/20 09:06:29;;;;;;;;;8.75;6.75;;;;;29.14;37.59;100855.25;146636;613;46010;-70
2022/06/20 09:09:54;;;;;;;;;8.75;8.00;;;;;29.17;36.15;100850.72;146641;669;44022;-69
2022/06/20 09:13:41;;;;;;;;;8.00;7.25;;;;;28.91;36.95;100772.97;146639;661;45027;-69
2022/06/20 09:17:18;;;;;;;;;11.50;10.25;;;;;29.39;37.05;100848.41;146634;570;45020;-69
2022/06/20 09:21:07;;;;;;;;;8.00;7.75;;;;;29.38;36.07;100835.97;146639;690;45010;-70
2022/06/20 09:24:49;;;;;;;;;8.25;8.25;;;;;29.40;36.07;100843.94;146637;575;46010;-69
2022/06/20 09:28:16;;;;;;;;;8.00;7.50;;;;;29.35;35.66;100835.16;146635;696;45010;-77
2022/06/20 09:31:37;;;;;;;;;6.25;6.25;;;;;29.49;36.50;100827.66;146639;569;45025;-73
2022/06/20 09:35:06;;;;;;;;;9.50;8.00;;;;;28.59;35.64;100646.56;146637;684;46010;-75
2022/06/20 09:38:35;;;;;;;;;6.00;5.00;;;;;29.62;35.58;100822.91;146640;644;45010;-74
2022/06/20 09:42:10;;;;;;;;;8.25;7.50;;;;;28.28;35.22;100652.56;146636;569;45925;-76
2022/06/20 09:45:30;;;;;;;;;5.75;4.50;;;;;28.81;35.12;100823.03;146641;603;45020;-77
2022/06/20 09:48:42;;;;;;;;;6.25;6.25;;;;;28.84;37.49;100816.75;146637;569;45010;-77
2022/06/20 09:51:57;;;;;;;;;7.25;7.00;;;;;29.00;35.93;100813.72;146641;720;45010;-74
2022/06/20 09:55:23;;;;;;;;;7.75;7.25;;;;;29.16;34.60;100800.00;146638;566;45019;-74
2022/06/20 09:59:04;;;;;;;;;6.25;6.25;;;;;29.28;34.95;100807.72;146634;652;46008;-74
2022/06/20 10:02:50;;;;;;;;;8.00;6.50;;;;;28.57;34.75;100690.19;146644;578;44018;-75
2022/06/20 10:05:56;;;;;;;;;6.00;5.50;;;;;29.16;35.48;100798.22;146620;607;46020;-77
2022/06/20 10:09:26;;;;;;;;;9.00;9.00;;;;;29.33;36.68;100795.12;146619;557;46019;-74
2022/06/20 10:12:56;;;;;;;;;8.50;7.50;;;;;29.45;34.08;100792.16;146618;602;46028;-79
2022/06/20 10:16:16;;;;;;;;;9.25;9.25;;;;;29.62;33.53;100790.84;146619;613;46018;-74
2022/06/20 10:19:42;;;;;;;;;8.75;7.75;;;;;28.78;33.59;100637.19;146614;588;46021;-70
2022/06/20 10:22:48;;;;;;;;;8.00;7.00;;;;;29.67;34.01;100791.62;146619;714;46008;-74
2022/06/20 10:26:13;;;;;;;;;8.50;8.25;;;;;29.74;35.48;100790.53;146617;742;46021;-74
2022/06/20 10:29:28;;;;;;;;;8.00;8.00;;;;;29.80;34.11;100792.16;146615;630;46018;-74
2022/06/20 10:32:29;;;;;;;;;7.00;6.00;;;;;29.92;34.72;100790.03;146617;688;46021;-73
2022/06/20 10:35:54;;;;;;;;;7.25;6.00;;;;;30.11;34.23;100786.84;146619;579;46010;-73
2022/06/20 10:39:13;;;;;;;;;8.50;8.50;;;;;30.26;34.56;100789.09;146617;680;46008;-75
2022/06/20 10:42:30;;;;;;;;;6.50;6.50;;;;;30.34;33.08;100781.75;146617;627;46008;-70
2022/06/20 10:46:03;;;;;;;;;7.00;6.25;;;;;29.29;34.00;100600.31;146617;634;46020;-70
2022/06/20 10:49:21;;;;;;;;;8.25;7.75;;;;;30.17;32.39;100775.97;146620;567;46010;-71
2022/06/20 10:52:37;;;;;;;;;6.25;6.25;;;;;29.82;32.66;100777.84;146622;586;45030;-72
2022/06/20 10:55:51;;;;;;;;;7.75;6.75;;;;;29.69;33.74;100779.09;146619;613;45019;-74
2022/06/20 10:59:26;;;;;;;;;7.00;6.00;;;;;29.35;33.89;100712.31;146620;582;46008;-74
2022/06/20 11:03:01;;;;;;;;;8.00;6.75;;;;;28.78;34.17;100583.84;146617;628;46010;-74
2022/06/20 11:06:35;;;;;;;;;6.75;6.75;;;;;29.15;34.52;100619.34;146624;670;45010;-75
2022/06/20 11:09:49;;;;;;;;;6.25;6.25;;;;;30.27;33.71;100756.06;146625;615;45019;-76
2022/06/20 11:12:59;;;;;;;;;6.25;6.25;;;;;30.49;32.00;100756.31;146626;626;45010;-75
2022/06/20 11:16:52;;;;;;;;;4.75;4.75;;;;;30.45;31.79;100748.44;146622;590;46010;-75
2022/06/20 11:20:06;;;;;;;;;8.25;7.00;;;;;30.38;32.73;100751.28;146628;687;45020;-75
2022/06/20 11:23:20;;;;;;;;;7.25;7.25;;;;;30.34;32.01;100749.63;146622;598;46010;-74
2022/06/20 11:27:09;;;;;;;;;5.75;5.75;;;;;30.21;33.71;100736.66;146624;622;46010;-77
2022/06/20 11:30:29;;;;;;;;;7.00;6.75;;;;;30.15;34.36;100733.19;146624;673;47008;-75
2022/06/20 11:37:41;;;;;;;;;5.75;5.75;;;;;29.61;33.75;100570.00;146625;593;46008;-73
2022/06/20 11:40:57;;;;;;;;;6.67;6.33;;;;;30.75;32.39;100734.09;146628;565;45021;-74
2022/06/20 11:44:27;;;;;;;;;6.25;6.25;;;;;30.09;33.66;100598.81;146625;587;44925;-72
2022/06/20 11:47:52;;;;;;;;;6.00;6.00;;;;;30.87;31.13;100727.47;146629;623;45011;-72
2022/06/20 11:51:12;;;;;;;;;6.25;6.25;;;;;30.97;32.74;100723.59;146624;655;45018;-73
2022/06/20 11:54:36;;;;;;;;;8.33;8.00;;;;;31.09;32.71;100721.41;146629;615;46008;-73
2022/06/20 11:57:46;;;;;;;;;8.00;7.00;;;;;31.21;33.58;100702.25;146623;578;46010;-73
2022/06/20 12:00:47;;;;;;;;;7.67;6.67;;;;;31.32;31.99;100709.91;146628;709;46008;-74
2022/06/20 12:04:02;;;;;;;;;7.25;7.00;;;;;31.39;33.11;100698.94;146634;638;45018;-74
2022/06/20 12:07:06;;;;;;;;;6.33;6.33;;;;;31.46;31.86;100689.75;146619;603;46008;-74
2022/06/20 12:10:37;;;;;;;;;5.33;5.33;;;;;31.54;32.16;100684.13;146618;583;46008;-74
2022/06/20 12:14:15;;;;;;;;;8.25;6.75;;;;;31.58;32.94;100683.06;146618;577;46008;-74
2022/06/20 12:17:38;;;;;;;;;7.00;6.50;;;;;31.63;31.38;100686.47;146616;592;46010;-74
2022/06/20 12:24:04;;;;;;;;;7.00;7.00;;;;;31.42;32.97;100676.53;146619;620;46019;-75
2022/06/20 12:26:56;;;;;;;;;6.25;5.25;;;;;31.27;32.05;100678.78;146617;586;46020;-76
2022/06/20 12:29:50;;;;;;;;;9.67;7.00;;;;;31.16;31.12;100675.62;146619;658;45018;-74
2022/06/20 12:32:44;;;;;;;;;9.25;8.25;;;;;31.18;32.77;100670.19;146619;570;46010;-75
2022/06/20 12:35:55;;;;;;;;;8.25;7.25;;;;;31.22;32.85;100672.72;146617;595;46018;-73
2022/06/20 12:39:16;;;;;;;;;6.00;6.00;;;;;31.21;31.73;100668.28;146620;663;46021;-73
2022/06/20 12:42:55;;;;;;;;;7.25;7.25;;;;;31.22;32.52;100670.06;146617;683;46925;-74
2022/06/20 12:46:17;;;;;;;;;9.00;8.00;;;;;30.27;33.08;100496.62;146618;564;46020;-74
2022/06/20 12:49:23;;;;;;;;;6.00;6.00;;;;;31.27;32.79;100657.34;146619;565;46010;-74
2022/06/20 12:52:43;;;;;;;;;7.75;5.75;;;;;31.27;32.42;100659.16;146617;673;46021;-74
2022/06/20 12:56:19;;;;;;;;;5.25;5.25;;;;;31.20;32.46;100650.47;146619;630;45925;-75
2022/06/20 13:00:02;;;;;;;;;6.00;6.00;;;;;31.15;32.34;100643.53;146619;701;45026;-75
2022/06/20 13:03:35;;;;;;;;;9.00;8.00;;;;;31.08;33.16;100632.16;146616;607;46018;-75
2022/06/20 13:07:12;;;;;;;;;8.00;8.00;;;;;31.12;32.10;100630.25;146640;564;45020;-74
2022/06/20 13:10:36;;;;;;;;;7.50;7.25;;;;;30.70;33.36;100540.66;146638;579;45018;-74
2022/06/20 13:14:11;;;;;;;;;5.50;5.50;;;;;31.30;32.63;100624.22;146630;683;46020;-76
2022/06/20 13:17:39;;;;;;;;;6.00;6.00;;;;;31.30;32.25;100626.91;146641;572;45010;-76
2022/06/20 13:21:20;;;;;;;;;7.00;6.00;;;;;31.24;31.82;100611.91;146640;574;45020;-74
2022/06/20 13:24:41;;;;;;;;;5.25;4.50;;;;;31.06;32.09;100612.63;146639;692;45010;-69
2022/06/20 13:28:04;;;;;;;;;7.75;6.25;;;;;30.86;33.79;100620.44;146639;728;45010;-67
2022/06/20 13:31:17;;;;;;;;;5.25;5.25;;;;;30.73;32.53;100615.47;146638;564;45924;-69
2022/06/20 13:34:27;;;;;;;;;6.50;6.50;;;;;30.55;32.75;100611.62;146640;629;45020;-69
2022/06/20 13:37:50;;;;;;;;;6.00;6.00;;;;;30.30;32.13;100608.88;146640;580;45019;-67
2022/06/20 13:41:16;;;;;;;;;7.00;6.75;;;;;29.65;32.84;100528.91;146637;620;46008;-69
2022/06/20 13:44:50;;;;;;;;;5.50;5.50;;;;;30.00;32.94;100591.09;146636;650;45026;-69
2022/06/20 13:48:01;;;;;;;;;6.75;6.00;;;;;29.97;32.31;100585.84;146639;566;46010;-68
2022/06/20 13:51:10;;;;;;;;;6.25;6.00;;;;;29.96;33.53;100586.75;146639;632;45924;-70
2022/06/20 13:54:38;;;;;;;;;7.00;7.00;;;;;30.12;34.24;100588.03;146643;579;45010;-68
2022/06/20 13:57:39;;;;;;;;;8.25;8.00;;;;;30.26;33.88;100576.94;146636;598;46924;-68
2022/06/20 14:00:37;;;;;;;;;8.00;7.50;;;;;29.08;33.37;100353.50;146639;588;46008;-69
2022/06/20 14:03:50;;;;;;;;;8.00;8.00;;;;;30.38;33.38;100576.53;146636;564;45018;-68
2022/06/20 14:06:53;;;;;;;;;5.25;5.00;;;;;30.40;33.31;100581.81;146617;666;46020;-68
2022/06/20 14:09:53;;;;;;;;;6.00;6.00;;;;;30.45;33.51;100582.56;146619;664;46008;-68
2022/06/20 14:12:46;;;;;;;;;8.00;7.75;;;;;30.52;33.44;100571.56;146620;597;46020;-68
2022/06/20 14:15:41;;;;;;;;;7.00;6.00;;;;;30.61;33.13;100573.06;146617;581;45925;-67
2022/06/20 14:18:35;;;;;;;;;6.25;6.00;;;;;30.67;32.08;100564.84;146616;669;46020;-69
2022/06/20 14:21:35;;;;;;;;;7.00;7.00;;;;;30.66;33.27;100567.59;146620;570;46019;-68
2022/06/20 14:24:42;;;;;;;;;7.00;6.50;;;;;30.63;34.20;100562.34;146620;598;46006;-69
2022/06/20 14:27:36;;;;;;;;;7.75;7.25;;;;;30.59;33.45;100565.13;146618;571;45026;-67
2022/06/20 14:30:42;;;;;;;;;8.00;7.25;;;;;30.54;33.70;100559.03;146619;676;46008;-67
2022/06/20 14:33:51;;;;;;;;;6.75;6.75;;;;;30.33;31.98;100560.62;146618;612;46010;-69
2022/06/20 14:37:11;;;;;;;;;7.00;7.00;;;;;30.08;33.84;100554.28;146617;573;46021;-73
2022/06/20 14:40:06;;;;;;;;;7.00;7.00;;;;;30.03;34.20;100553.56;146618;673;45933;-76
2022/06/20 14:43:13;;;;;;;;;7.00;7.00;;;;;30.05;34.37;100554.41;146616;566;46010;-74
2022/06/20 14:46:41;;;;;;;;;7.75;7.00;;;;;30.09;33.68;100543.56;146618;611;46010;-75
2022/06/20 14:49:53;;;;;;;;;4.25;4.25;;;;;30.10;34.77;100542.63;146617;625;46020;-75
2022/06/20 14:53:28;;;;;;;;;7.25;7.25;;;;;30.00;33.70;100537.63;146622;670;45018;-73
2022/06/20 14:56:41;;;;;;;;;6.00;5.00;;;;;29.85;36.59;100539.00;146620;598;46008;-76
2022/06/20 15:00:07;;;;;;;;;5.50;5.50;;;;;29.66;40.14;100522.66;146620;626;46008;-74